createdAt,value
2022-12-17T00:01:26.891Z,18.00
2022-12-17T00:04:11.981Z,16.08
2022-12-17T00:06:57.192Z,15.98
2022-12-17T00:09:45.756Z,16.60
2022-12-17T00:12:33.898Z,16.23
2022-12-17T00:15:20.337Z,16.27
2022-12-17T00:18:20.299Z,16.92
2022-12-17T00:21:10.689Z,16.67
2022-12-17T00:23:55.548Z,17.17
2022-12-17T00:26:41.893Z,15.68
2022-12-17T00:29:27.178Z,16.00
2022-12-17T00:32:13.826Z,16.23
2022-12-17T00:34:58.884Z,16.23
2022-12-17T00:37:44.149Z,14.75
2022-12-17T00:40:31.820Z,16.80
2022-12-17T00:43:20.720Z,17.75
2022-12-17T00:46:05.892Z,14.93
2022-12-17T00:48:52.938Z,14.30
2022-12-17T00:51:39.778Z,15.13
2022-12-17T00:54:25.287Z,16.17
2022-12-17T00:57:10.703Z,16.00
2022-12-17T00:59:56.020Z,16.25
2022-12-17T01:02:41.969Z,17.90
2022-12-17T01:05:29.405Z,18.40
2022-12-17T01:08:15.177Z,16.60
2022-12-17T01:11:00.843Z,16.80
2022-12-17T01:13:45.985Z,16.92
2022-12-17T01:16:32.679Z,16.25
2022-12-17T01:19:18.470Z,17.00
2022-12-17T01:22:05.116Z,17.25
2022-12-17T01:24:50.450Z,16.77
2022-12-17T01:27:35.887Z,18.25
2022-12-17T01:30:20.988Z,16.45
2022-12-17T01:33:06.266Z,18.60
2022-12-17T01:35:51.544Z,17.50
2022-12-17T01:38:38.361Z,18.30
2022-12-17T01:41:24.692Z,19.02
2022-12-17T01:44:09.669Z,18.15
2022-12-17T01:46:57.534Z,16.52
2022-12-17T01:49:45.319Z,16.10
2022-12-17T01:52:32.075Z,18.52
2022-12-17T01:55:24.136Z,16.70
2022-12-17T01:58:08.927Z,17.17
2022-12-17T02:00:54.529Z,17.55
2022-12-17T02:03:39.721Z,17.52
2022-12-17T02:06:34.836Z,17.95
2022-12-17T02:09:29.063Z,18.02
2022-12-17T02:12:28.333Z,18.38
2022-12-17T02:15:19.823Z,17.63
2022-12-17T02:18:08.305Z,17.15
2022-12-17T02:20:58.022Z,18.25
2022-12-17T02:23:53.872Z,17.60
2022-12-17T02:26:56.784Z,18.60
2022-12-17T02:29:45.273Z,19.52
2022-12-17T02:32:32.963Z,18.30
2022-12-17T02:35:29.064Z,19.50
2022-12-17T02:38:14.644Z,19.85
2022-12-17T02:41:00.855Z,18.83
2022-12-17T02:43:51.523Z,20.10
2022-12-17T02:46:38.371Z,21.05
2022-12-17T02:49:23.999Z,20.23
2022-12-17T02:52:21.415Z,18.63
2022-12-17T02:55:15.333Z,18.90
2022-12-17T02:58:00.845Z,18.10
2022-12-17T03:00:47.719Z,19.88
2022-12-17T03:03:32.876Z,20.33
2022-12-17T03:06:18.454Z,18.75
2022-12-17T03:09:03.747Z,19.02
2022-12-17T03:11:49.086Z,19.23
2022-12-17T03:14:34.249Z,19.83
2022-12-17T03:17:20.861Z,20.40
2022-12-17T03:20:06.191Z,19.42
2022-12-17T03:22:51.564Z,18.75
2022-12-17T03:25:36.957Z,20.35
2022-12-17T03:28:23.010Z,18.92
2022-12-17T03:31:08.425Z,20.20
2022-12-17T03:34:00.371Z,20.70
2022-12-17T03:36:45.656Z,18.90
2022-12-17T03:39:30.821Z,19.67
2022-12-17T03:42:16.219Z,20.33
2022-12-17T03:45:01.505Z,19.50
2022-12-17T03:47:49.272Z,20.33
2022-12-17T03:50:35.918Z,18.77
2022-12-17T03:53:23.097Z,17.80
2022-12-17T03:56:08.451Z,20.15
2022-12-17T03:58:53.713Z,19.70
2022-12-17T04:01:39.001Z,20.52
2022-12-17T04:04:24.119Z,19.38
2022-12-17T04:07:10.605Z,19.33
2022-12-17T04:09:56.067Z,20.52
2022-12-17T04:12:41.332Z,19.35
2022-12-17T04:15:27.085Z,18.27
2022-12-17T04:18:12.178Z,19.30
2022-12-17T04:20:57.372Z,18.92
2022-12-17T04:23:43.999Z,20.08
2022-12-17T04:26:29.182Z,19.30
2022-12-17T04:29:14.314Z,17.88
2022-12-17T04:31:59.765Z,18.50
2022-12-17T04:34:45.071Z,19.67
2022-12-17T04:37:38.802Z,18.63
2022-12-17T04:40:28.108Z,18.27
2022-12-17T04:43:13.471Z,17.77
2022-12-17T04:45:59.011Z,20.75
2022-12-17T04:48:44.284Z,19.42
2022-12-17T04:51:29.636Z,20.40
2022-12-17T04:54:14.918Z,19.10
2022-12-17T04:57:01.492Z,17.30
2022-12-17T04:59:46.769Z,18.83
2022-12-17T05:02:32.105Z,18.70
2022-12-17T05:05:17.213Z,16.88
2022-12-17T05:08:07.847Z,16.97
2022-12-17T05:10:53.165Z,15.85
2022-12-17T05:13:39.858Z,15.68
2022-12-17T05:16:25.081Z,16.10
2022-12-17T05:19:10.453Z,16.45
2022-12-17T05:21:55.692Z,15.48
2022-12-17T05:24:41.021Z,16.40
2022-12-17T05:27:26.259Z,17.07
2022-12-17T05:30:12.627Z,18.55
2022-12-17T05:32:57.906Z,17.95
2022-12-17T05:35:43.095Z,18.05
2022-12-17T05:38:29.325Z,17.73
2022-12-17T05:41:15.737Z,17.33
2022-12-17T05:44:00.903Z,18.77
2022-12-17T05:46:47.991Z,17.45
2022-12-17T05:49:33.498Z,18.50
2022-12-17T05:52:18.821Z,18.43
2022-12-17T05:55:04.283Z,18.03
2022-12-17T05:57:56.027Z,16.83
2022-12-17T06:00:41.470Z,14.23
2022-12-17T06:03:28.469Z,18.80
2022-12-17T06:06:14.777Z,18.70
2022-12-17T06:09:02.262Z,19.83
2022-12-17T06:11:47.581Z,18.07
2022-12-17T06:14:32.873Z,19.63
2022-12-17T06:17:18.076Z,18.00
2022-12-17T06:20:04.774Z,19.23
2022-12-17T06:22:50.188Z,19.25
2022-12-17T06:25:46.730Z,20.52
2022-12-17T06:28:31.604Z,19.87
2022-12-17T06:31:16.965Z,21.20
2022-12-17T06:34:02.291Z,19.30
2022-12-17T06:36:48.753Z,19.00
2022-12-17T06:39:34.136Z,19.50
2022-12-17T06:42:19.352Z,20.25
2022-12-17T06:45:04.654Z,20.35
2022-12-17T06:47:50.059Z,18.47
2022-12-17T06:50:35.398Z,18.20
2022-12-17T06:53:24.226Z,17.87
2022-12-17T06:56:09.516Z,18.48
2022-12-17T06:58:54.940Z,16.83
2022-12-17T07:01:40.572Z,16.20
2022-12-17T07:04:25.997Z,17.47
2022-12-17T07:07:11.539Z,18.67
2022-12-17T07:09:58.122Z,19.25
2022-12-17T07:12:43.503Z,18.80
2022-12-17T07:15:29.307Z,19.85
2022-12-17T07:18:15.065Z,16.43
2022-12-17T07:21:00.539Z,19.20
2022-12-17T07:23:45.817Z,16.40
2022-12-17T07:26:32.426Z,22.70
2022-12-17T07:29:23.239Z,18.93
2022-12-17T07:32:08.712Z,17.30
2022-12-17T07:34:53.832Z,18.87
2022-12-17T07:37:39.255Z,19.50
2022-12-17T07:40:25.479Z,18.57
2022-12-17T07:43:12.529Z,19.07
2022-12-17T07:45:58.182Z,20.00
2022-12-17T07:48:43.451Z,20.53
2022-12-17T07:51:28.806Z,18.47
2022-12-17T07:54:14.151Z,18.90
2022-12-17T07:56:59.271Z,17.07
2022-12-17T07:59:45.273Z,17.00
2022-12-17T08:02:30.617Z,17.53
2022-12-17T08:05:30.269Z,18.43
2022-12-17T08:08:15.018Z,16.75
2022-12-17T08:11:00.074Z,18.10
2022-12-17T08:13:45.351Z,17.37
2022-12-17T08:16:32.378Z,19.37
2022-12-17T08:19:17.840Z,18.17
2022-12-17T08:22:03.028Z,18.73
2022-12-17T08:24:48.280Z,19.52
2022-12-17T08:27:33.579Z,21.57
2022-12-17T08:30:18.880Z,20.17
2022-12-17T08:33:05.483Z,19.73
2022-12-17T08:35:55.980Z,18.90
2022-12-17T08:38:41.300Z,19.20
2022-12-17T08:41:26.361Z,17.97
2022-12-17T08:44:11.695Z,17.93
2022-12-17T08:46:57.325Z,17.90
2022-12-17T08:49:49.018Z,17.77
2022-12-17T08:52:34.165Z,18.03
2022-12-17T08:55:19.453Z,16.87
2022-12-17T08:58:11.254Z,19.27
2022-12-17T09:00:57.242Z,20.53
2022-12-17T09:03:42.960Z,20.77
2022-12-17T09:06:33.435Z,20.83
2022-12-17T09:09:22.818Z,20.40
2022-12-17T09:12:07.895Z,19.05
2022-12-17T09:14:53.205Z,20.40
2022-12-17T09:17:38.580Z,18.90
2022-12-17T09:20:29.117Z,19.00
2022-12-17T09:23:24.563Z,17.67
2022-12-17T09:26:12.242Z,17.77
2022-12-17T09:28:57.276Z,19.73
2022-12-17T09:31:42.802Z,17.80
2022-12-17T09:34:42.587Z,18.70
2022-12-17T09:37:27.863Z,17.93
2022-12-17T09:40:14.454Z,17.97
2022-12-17T09:43:08.662Z,21.07
2022-12-17T09:46:03.486Z,25.80
2022-12-17T09:48:55.076Z,27.67
2022-12-17T09:51:42.304Z,25.83
2022-12-17T09:54:38.408Z,27.30
2022-12-17T09:57:25.528Z,26.73
2022-12-17T10:00:10.914Z,28.48
2022-12-17T10:02:57.393Z,26.50
2022-12-17T10:05:51.025Z,27.17
2022-12-17T10:08:39.474Z,24.85
2022-12-17T10:11:34.535Z,24.48
2022-12-17T10:14:23.110Z,25.50
2022-12-17T10:17:12.204Z,23.98
2022-12-17T10:20:00.593Z,23.83
2022-12-17T10:22:45.962Z,24.90
2022-12-17T10:25:34.200Z,23.95
2022-12-17T10:28:20.943Z,23.80
2022-12-17T10:31:08.158Z,25.45
2022-12-17T10:33:56.811Z,26.20
2022-12-17T10:36:43.602Z,25.95
2022-12-17T10:39:35.440Z,26.50
2022-12-17T10:42:21.280Z,26.70
2022-12-17T10:45:07.788Z,27.60
2022-12-17T10:47:54.355Z,26.45
2022-12-17T10:50:41.637Z,27.17
2022-12-17T10:53:37.056Z,24.83
2022-12-17T10:56:29.659Z,25.38
2022-12-17T10:59:14.652Z,27.42
2022-12-17T11:02:01.091Z,25.65
2022-12-17T11:04:49.897Z,25.33
2022-12-17T11:07:41.739Z,28.10
2022-12-17T11:10:34.587Z,25.17
2022-12-17T11:13:23.941Z,25.15
2022-12-17T11:16:12.356Z,23.85
2022-12-17T11:19:03.412Z,26.08
2022-12-17T11:21:54.613Z,25.08
2022-12-17T11:24:42.990Z,26.48
2022-12-17T11:27:34.019Z,26.42
2022-12-17T11:30:19.256Z,25.90
2022-12-17T11:33:19.324Z,27.40
2022-12-17T11:36:12.203Z,26.08
2022-12-17T11:39:07.982Z,27.92
2022-12-17T11:42:11.234Z,26.10
2022-12-17T11:45:04.187Z,26.83
2022-12-17T11:47:59.555Z,26.95
2022-12-17T11:50:50.460Z,25.50
2022-12-17T11:53:55.560Z,23.95
2022-12-17T11:56:46.734Z,26.00
2022-12-17T11:59:40.938Z,26.15
2022-12-17T12:02:40.872Z,25.90
2022-12-17T12:05:37.744Z,24.35
2022-12-17T12:08:30.042Z,31.00
2022-12-17T12:11:29.765Z,27.97
2022-12-17T12:14:27.637Z,27.15
2022-12-17T12:17:21.659Z,22.55
2022-12-17T12:20:14.166Z,23.25
2022-12-17T12:23:12.547Z,22.88
2022-12-17T12:26:20.335Z,24.52
2022-12-17T12:29:12.186Z,21.23
2022-12-17T12:32:03.602Z,23.15
2022-12-17T12:34:52.964Z,24.58
2022-12-17T12:37:39.369Z,22.55
2022-12-17T12:40:35.376Z,25.02
2022-12-17T12:43:30.581Z,28.77
2022-12-17T12:46:21.383Z,24.42
2022-12-17T12:49:15.906Z,23.52
2022-12-17T12:52:01.712Z,23.73
2022-12-17T12:54:49.566Z,23.05
2022-12-17T12:57:49.753Z,23.67
2022-12-17T13:00:53.060Z,22.95
2022-12-17T13:03:44.703Z,23.25
2022-12-17T13:06:15.975Z,22.23
2022-12-17T13:08:43.547Z,24.48
2022-12-17T13:11:29.241Z,24.58
2022-12-17T13:14:07.320Z,23.25
2022-12-17T13:16:43.527Z,21.33
2022-12-17T13:19:21.316Z,23.55
2022-12-17T13:21:50.389Z,24.40
2022-12-17T13:24:28.228Z,22.35
2022-12-17T13:26:55.781Z,23.95
2022-12-17T13:29:29.602Z,23.88
2022-12-17T13:32:06.083Z,22.55
2022-12-17T13:34:44.992Z,22.55
2022-12-17T13:37:23.415Z,41.53
2022-12-17T13:39:59.969Z,29.92
2022-12-17T13:42:31.069Z,25.83
2022-12-17T13:44:59.978Z,22.38
2022-12-17T13:47:30.571Z,22.45
2022-12-17T13:50:32.817Z,22.05
2022-12-17T13:52:50.079Z,22.50
2022-12-17T13:55:21.061Z,20.85
2022-12-17T13:57:49.959Z,23.00
2022-12-17T14:00:24.120Z,23.05
2022-12-17T14:02:52.559Z,22.90
2022-12-17T14:05:26.943Z,21.88
2022-12-17T14:07:59.356Z,20.38
2022-12-17T14:10:27.152Z,22.25
2022-12-17T14:13:04.022Z,21.67
2022-12-17T14:15:31.992Z,30.90
2022-12-17T14:18:00.535Z,29.30
2022-12-17T14:20:31.786Z,24.52
2022-12-17T14:23:04.248Z,22.48
2022-12-17T14:25:36.329Z,22.55
2022-12-17T14:28:06.188Z,22.58
2022-12-17T14:30:46.172Z,21.27
2022-12-17T14:33:29.521Z,22.77
2022-12-17T14:35:58.652Z,22.73
2022-12-17T14:38:48.645Z,24.45
2022-12-17T14:41:34.089Z,23.55
2022-12-17T14:44:03.496Z,23.13
2022-12-17T14:46:32.921Z,24.70
2022-12-17T14:49:02.612Z,25.70
2022-12-17T14:51:33.398Z,22.60
2022-12-17T14:54:19.537Z,26.48
2022-12-17T14:56:49.233Z,24.40
2022-12-17T14:59:31.686Z,24.08
2022-12-17T15:02:02.797Z,24.67
2022-12-17T15:04:32.170Z,26.15
2022-12-17T15:07:00.334Z,23.75
2022-12-17T15:09:29.235Z,24.58
2022-12-17T15:11:57.240Z,25.55
2022-12-17T15:14:24.755Z,25.10
2022-12-17T15:16:52.718Z,31.83
2022-12-17T15:19:20.324Z,30.92
2022-12-17T15:21:47.877Z,24.95
2022-12-17T15:24:20.351Z,22.48
2022-12-17T15:26:49.910Z,20.90
2022-12-17T15:29:17.502Z,21.52
2022-12-17T15:31:45.127Z,21.35
2022-12-17T15:34:13.406Z,21.85
2022-12-17T15:36:40.942Z,21.42
2022-12-17T15:39:09.418Z,20.40
2022-12-17T15:41:54.912Z,20.65
2022-12-17T15:44:23.757Z,20.65
2022-12-17T15:46:51.398Z,20.95
2022-12-17T15:49:18.900Z,20.40
2022-12-17T15:51:46.419Z,20.35
2022-12-17T15:54:13.923Z,20.23
2022-12-17T15:56:41.431Z,21.52
2022-12-17T15:59:08.954Z,21.35
2022-12-17T16:01:38.056Z,20.33
2022-12-17T16:04:09.185Z,20.63
2022-12-17T16:06:41.420Z,22.35
2022-12-17T16:09:08.910Z,21.52
2022-12-17T16:11:36.506Z,22.55
2022-12-17T16:14:04.070Z,22.33
2022-12-17T16:16:31.770Z,21.50
2022-12-17T16:19:01.936Z,22.00
2022-12-17T16:21:29.964Z,22.48
2022-12-17T16:23:57.511Z,22.90
2022-12-17T16:26:27.269Z,24.23
2022-12-17T16:28:54.797Z,25.67
2022-12-17T16:31:22.336Z,23.05
2022-12-17T16:33:49.891Z,21.63
2022-12-17T16:36:21.384Z,23.08
2022-12-17T16:38:51.243Z,20.90
2022-12-17T16:41:19.848Z,21.27
2022-12-17T16:43:47.883Z,18.52
2022-12-17T16:46:27.206Z,21.52
2022-12-17T16:48:55.991Z,21.02
2022-12-17T16:51:29.272Z,19.33
2022-12-17T16:53:57.365Z,19.73
2022-12-17T16:56:27.232Z,18.65
2022-12-17T16:58:55.385Z,19.30
2022-12-17T17:01:25.018Z,19.15
2022-12-17T17:03:52.751Z,19.42
2022-12-17T17:06:22.066Z,21.92
2022-12-17T17:08:51.377Z,20.40
2022-12-17T17:11:21.426Z,19.77
2022-12-17T17:13:49.935Z,19.98
2022-12-17T17:16:19.945Z,19.52
2022-12-17T17:18:47.858Z,20.55
2022-12-17T17:21:26.295Z,20.42
2022-12-17T17:23:57.746Z,21.58
2022-12-17T17:26:25.506Z,20.45
2022-12-17T17:28:53.103Z,22.00
2022-12-17T17:31:21.819Z,21.42
2022-12-17T17:33:51.190Z,20.85
2022-12-17T17:36:20.800Z,20.73
2022-12-17T17:38:49.940Z,21.20
2022-12-17T17:41:20.344Z,20.80
2022-12-17T17:43:48.423Z,21.45
2022-12-17T17:46:17.797Z,21.65
2022-12-17T17:48:47.637Z,22.55
2022-12-17T17:51:23.259Z,20.38
2022-12-17T17:53:57.343Z,21.13
2022-12-17T17:56:29.391Z,23.30
2022-12-17T17:58:59.894Z,20.35
2022-12-17T18:01:29.762Z,22.25
2022-12-17T18:03:59.670Z,21.33
2022-12-17T18:06:27.748Z,22.17
2022-12-17T18:08:57.071Z,19.90
2022-12-17T18:11:28.570Z,21.50
2022-12-17T18:13:56.786Z,22.90
2022-12-17T18:16:26.487Z,23.58
2022-12-17T18:18:55.919Z,22.63
2022-12-17T18:21:23.794Z,26.23
2022-12-17T18:23:56.426Z,25.08
2022-12-17T18:26:25.872Z,29.27
2022-12-17T18:28:53.423Z,25.10
2022-12-17T18:31:23.244Z,24.08
2022-12-17T18:33:53.757Z,23.58
2022-12-17T18:36:23.287Z,24.20
2022-12-17T18:38:56.583Z,24.38
2022-12-17T18:41:43.979Z,23.45
2022-12-17T18:44:12.791Z,23.25
2022-12-17T18:46:40.474Z,24.13
2022-12-17T18:49:10.563Z,22.98
2022-12-17T18:51:39.785Z,25.65
2022-12-17T18:54:09.054Z,25.00
2022-12-17T18:57:00.596Z,25.17
2022-12-17T18:59:29.281Z,25.92
2022-12-17T19:01:57.568Z,26.08
2022-12-17T19:04:26.575Z,25.00
2022-12-17T19:06:55.074Z,23.35
2022-12-17T19:09:25.464Z,22.52
2022-12-17T19:11:55.600Z,21.75
2022-12-17T19:14:23.667Z,20.90
2022-12-17T19:16:52.126Z,23.17
2022-12-17T19:19:21.241Z,23.15
2022-12-17T19:21:49.652Z,24.30
2022-12-17T19:24:19.586Z,24.52
2022-12-17T19:26:47.130Z,23.10
2022-12-17T19:29:17.404Z,25.15
2022-12-17T19:31:45.640Z,26.48
2022-12-17T19:34:16.091Z,27.33
2022-12-17T19:36:44.237Z,25.65
2022-12-17T19:39:13.641Z,26.27
2022-12-17T19:41:41.381Z,22.38
2022-12-17T19:44:12.563Z,21.73
2022-12-17T19:46:42.256Z,22.58
2022-12-17T19:49:12.173Z,22.13
2022-12-17T19:51:42.994Z,22.80
2022-12-17T19:54:12.132Z,21.88
2022-12-17T19:56:39.775Z,22.00
2022-12-17T19:59:10.543Z,21.45
2022-12-17T20:01:42.695Z,21.38
2022-12-17T20:04:11.675Z,22.00
2022-12-17T20:06:39.203Z,21.95
2022-12-17T20:09:07.675Z,23.52
2022-12-17T20:11:36.066Z,21.48
2022-12-17T20:14:07.475Z,20.60
2022-12-17T20:16:36.708Z,20.40
2022-12-17T20:19:07.649Z,22.02
2022-12-17T20:21:35.655Z,21.77
2022-12-17T20:24:03.188Z,22.90
2022-12-17T20:26:30.922Z,23.35
2022-12-17T20:28:59.051Z,22.08
2022-12-17T20:31:26.899Z,21.23
2022-12-17T20:33:54.541Z,23.40
2022-12-17T20:36:24.392Z,22.65
2022-12-17T20:38:51.937Z,23.00
2022-12-17T20:41:21.327Z,24.20
2022-12-17T20:43:49.622Z,22.50
2022-12-17T20:46:18.925Z,23.00
2022-12-17T20:48:47.455Z,21.65
2022-12-17T20:51:17.808Z,22.30
2022-12-17T20:53:47.789Z,21.95
2022-12-17T20:56:17.374Z,24.23
2022-12-17T20:58:45.540Z,23.48
2022-12-17T21:01:15.632Z,23.90
2022-12-17T21:03:43.850Z,23.00
2022-12-17T21:06:13.516Z,23.13
2022-12-17T21:08:47.892Z,23.70
2022-12-17T21:11:19.695Z,22.23
2022-12-17T21:13:47.636Z,24.23
2022-12-17T21:16:18.050Z,22.98
2022-12-17T21:18:46.138Z,24.23
2022-12-17T21:21:20.656Z,24.45
2022-12-17T21:23:49.273Z,23.80
2022-12-17T21:26:19.820Z,24.25
2022-12-17T21:28:48.858Z,23.58
2022-12-17T21:31:18.787Z,26.15
2022-12-17T21:33:46.946Z,25.07
2022-12-17T21:36:15.687Z,25.20
2022-12-17T21:38:43.284Z,26.90
2022-12-17T21:41:12.599Z,27.38
2022-12-17T21:43:41.900Z,27.45
2022-12-17T21:46:12.107Z,26.55
2022-12-17T21:48:42.764Z,24.83
2022-12-17T21:51:13.037Z,27.23
2022-12-17T21:53:43.434Z,26.77
2022-12-17T21:56:14.008Z,29.33
2022-12-17T21:58:44.444Z,27.63
2022-12-17T22:01:18.219Z,30.30
2022-12-17T22:03:47.213Z,25.65
2022-12-17T22:06:20.816Z,26.17
2022-12-17T22:08:49.920Z,26.17
2022-12-17T22:11:21.696Z,25.40
2022-12-17T22:14:15.559Z,26.50
2022-12-17T22:16:49.876Z,25.83
2022-12-17T22:19:21.803Z,24.67
2022-12-17T22:21:57.432Z,26.98
2022-12-17T22:24:26.357Z,26.00
2022-12-17T22:27:00.008Z,27.30
2022-12-17T22:29:43.413Z,26.58
2022-12-17T22:32:28.996Z,28.33
2022-12-17T22:35:52.748Z,27.27
2022-12-17T22:42:12.070Z,26.80
2022-12-17T22:44:29.476Z,27.33
2022-12-17T22:44:40.758Z,25.13
2022-12-17T22:46:18.994Z,24.23
2022-12-17T22:48:46.986Z,25.17
2022-12-17T22:51:22.605Z,26.50
2022-12-17T22:54:02.611Z,27.02
2022-12-17T22:56:49.452Z,25.23
2022-12-17T22:59:19.327Z,24.35
2022-12-17T23:01:48.340Z,24.53
2022-12-17T23:04:17.268Z,25.47
2022-12-17T23:06:46.392Z,23.37
2022-12-17T23:09:14.890Z,23.85
2022-12-17T23:11:42.457Z,25.90
2022-12-17T23:14:10.026Z,23.67
2022-12-17T23:16:38.892Z,24.50
2022-12-17T23:19:08.876Z,24.53
2022-12-17T23:21:36.582Z,23.65
2022-12-17T23:24:04.949Z,25.42
2022-12-17T23:26:34.638Z,26.58
2022-12-17T23:29:05.630Z,24.35
2022-12-17T23:31:35.476Z,23.17
2022-12-17T23:34:03.309Z,24.85
2022-12-17T23:36:32.182Z,22.50
2022-12-17T23:39:00.571Z,20.95
2022-12-17T23:41:30.839Z,23.83
2022-12-17T23:44:00.197Z,24.67
2022-12-17T23:46:29.963Z,22.73
2022-12-17T23:48:57.905Z,22.77
2022-12-17T23:51:26.183Z,24.57
2022-12-17T23:53:55.102Z,23.73
2022-12-17T23:56:24.215Z,24.17
2022-12-17T23:58:54.002Z,23.37
